sensor_id;sensor_type;location;lat;lon;timestamp;P1;durP1;ratioP1;P2;durP2;ratioP2
50821;SDS011;36794;51.212;6.980;2022-08-01T00:00:34;8.82;;;4.53;;
50821;SDS011;36794;51.212;6.980;2022-08-01T00:03:00;8.30;;;4.13;;
50821;SDS011;36794;51.212;6.980;2022-08-01T00:05:26;7.38;;;4.68;;
50821;SDS011;36794;51.212;6.980;2022-08-01T00:07:52;7.35;;;4.38;;
50821;SDS011;36794;51.212;6.980;2022-08-01T00:10:18;9.43;;;4.57;;
50821;SDS011;36794;51.212;6.980;2022-08-01T00:12:44;7.57;;;4.25;;
50821;SDS011;36794;51.212;6.980;2022-08-01T00:15:11;6.35;;;4.10;;
50821;SDS011;36794;51.212;6.980;2022-08-01T00:17:37;9.63;;;4.40;;
50821;SDS011;36794;51.212;6.980;2022-08-01T00:20:04;7.47;;;4.38;;
50821;SDS011;36794;51.212;6.980;2022-08-01T00:22:31;6.22;;;4.10;;
50821;SDS011;36794;51.212;6.980;2022-08-01T00:24:57;8.50;;;4.80;;
50821;SDS011;36794;51.212;6.980;2022-08-01T00:27:23;8.27;;;4.35;;
50821;SDS011;36794;51.212;6.980;2022-08-01T00:29:49;8.48;;;4.57;;
50821;SDS011;36794;51.212;6.980;2022-08-01T00:32:15;7.07;;;4.15;;
50821;SDS011;36794;51.212;6.980;2022-08-01T00:34:41;5.82;;;4.03;;
50821;SDS011;36794;51.212;6.980;2022-08-01T00:37:07;6.28;;;4.15;;
50821;SDS011;36794;51.212;6.980;2022-08-01T00:39:33;9.60;;;4.32;;
50821;SDS011;36794;51.212;6.980;2022-08-01T00:41:59;6.35;;;4.18;;
50821;SDS011;36794;51.212;6.980;2022-08-01T00:44:26;7.00;;;4.38;;
50821;SDS011;36794;51.212;6.980;2022-08-01T00:46:52;11.30;;;4.50;;
50821;SDS011;36794;51.212;6.980;2022-08-01T00:49:18;9.65;;;4.47;;
50821;SDS011;36794;51.212;6.980;2022-08-01T00:51:44;11.32;;;5.50;;
50821;SDS011;36794;51.212;6.980;2022-08-01T00:54:10;7.35;;;4.47;;
50821;SDS011;36794;51.212;6.980;2022-08-01T00:56:36;7.88;;;5.20;;
50821;SDS011;36794;51.212;6.980;2022-08-01T00:59:02;11.48;;;5.03;;
50821;SDS011;36794;51.212;6.980;2022-08-01T01:01:30;9.38;;;5.00;;
50821;SDS011;36794;51.212;6.980;2022-08-01T01:03:56;11.13;;;5.70;;
50821;SDS011;36794;51.212;6.980;2022-08-01T01:09:00;8.90;;;5.65;;
50821;SDS011;36794;51.212;6.980;2022-08-01T01:11:28;10.15;;;6.18;;
50821;SDS011;36794;51.212;6.980;2022-08-01T01:13:57;12.23;;;5.72;;
50821;SDS011;36794;51.212;6.980;2022-08-01T01:16:25;12.90;;;5.95;;
50821;SDS011;36794;51.212;6.980;2022-08-01T01:18:53;11.50;;;6.20;;
50821;SDS011;36794;51.212;6.980;2022-08-01T01:21:26;10.18;;;6.50;;
50821;SDS011;36794;51.212;6.980;2022-08-01T01:24:16;8.02;;;5.88;;
50821;SDS011;36794;51.212;6.980;2022-08-01T01:27:01;10.77;;;6.35;;
50821;SDS011;36794;51.212;6.980;2022-08-01T01:29:48;13.32;;;6.22;;
50821;SDS011;36794;51.212;6.980;2022-08-01T01:34:48;11.80;;;6.75;;
50821;SDS011;36794;51.212;6.980;2022-08-01T01:37:16;13.02;;;7.38;;
50821;SDS011;36794;51.212;6.980;2022-08-01T01:39:43;11.63;;;6.70;;
50821;SDS011;36794;51.212;6.980;2022-08-01T01:42:10;10.20;;;6.50;;
50821;SDS011;36794;51.212;6.980;2022-08-01T01:44:36;10.85;;;6.68;;
50821;SDS011;36794;51.212;6.980;2022-08-01T01:47:03;13.73;;;6.45;;
50821;SDS011;36794;51.212;6.980;2022-08-01T01:49:30;9.65;;;6.70;;
50821;SDS011;36794;51.212;6.980;2022-08-01T01:51:56;15.05;;;7.45;;
50821;SDS011;36794;51.212;6.980;2022-08-01T01:54:23;12.82;;;6.28;;
50821;SDS011;36794;51.212;6.980;2022-08-01T01:56:50;14.65;;;7.53;;
50821;SDS011;36794;51.212;6.980;2022-08-01T01:59:19;12.68;;;6.85;;
50821;SDS011;36794;51.212;6.980;2022-08-01T02:01:46;17.42;;;7.35;;
50821;SDS011;36794;51.212;6.980;2022-08-01T02:04:13;14.90;;;7.45;;
50821;SDS011;36794;51.212;6.980;2022-08-01T02:06:39;11.43;;;7.03;;
50821;SDS011;36794;51.212;6.980;2022-08-01T02:09:06;13.82;;;7.28;;
50821;SDS011;36794;51.212;6.980;2022-08-01T02:11:33;11.52;;;7.95;;
50821;SDS011;36794;51.212;6.980;2022-08-01T02:14:01;10.10;;;6.95;;
50821;SDS011;36794;51.212;6.980;2022-08-01T02:16:28;13.30;;;7.30;;
50821;SDS011;36794;51.212;6.980;2022-08-01T02:18:55;13.13;;;6.95;;
50821;SDS011;36794;51.212;6.980;2022-08-01T02:21:32;12.68;;;6.82;;
50821;SDS011;36794;51.212;6.980;2022-08-01T02:24:03;13.68;;;7.68;;
50821;SDS011;36794;51.212;6.980;2022-08-01T02:26:33;9.88;;;6.80;;
50821;SDS011;36794;51.212;6.980;2022-08-01T02:29:00;12.73;;;7.15;;
50821;SDS011;36794;51.212;6.980;2022-08-01T02:31:28;13.98;;;7.90;;
50821;SDS011;36794;51.212;6.980;2022-08-01T02:34:05;17.52;;;8.10;;
50821;SDS011;36794;51.212;6.980;2022-08-01T02:36:33;14.02;;;7.97;;
50821;SDS011;36794;51.212;6.980;2022-08-01T02:39:04;11.85;;;7.68;;
50821;SDS011;36794;51.212;6.980;2022-08-01T02:41:33;13.32;;;7.95;;
50821;SDS011;36794;51.212;6.980;2022-08-01T02:44:01;14.68;;;8.63;;
50821;SDS011;36794;51.212;6.980;2022-08-01T02:46:34;12.13;;;8.25;;
50821;SDS011;36794;51.212;6.980;2022-08-01T02:49:00;12.35;;;7.95;;
50821;SDS011;36794;51.212;6.980;2022-08-01T02:51:28;14.02;;;7.93;;
50821;SDS011;36794;51.212;6.980;2022-08-01T02:53:55;16.00;;;9.05;;
50821;SDS011;36794;51.212;6.980;2022-08-01T02:56:22;11.95;;;7.68;;
50821;SDS011;36794;51.212;6.980;2022-08-01T02:58:48;15.00;;;7.65;;
50821;SDS011;36794;51.212;6.980;2022-08-01T03:01:15;15.35;;;8.75;;
50821;SDS011;36794;51.212;6.980;2022-08-01T03:03:42;17.00;;;8.88;;
50821;SDS011;36794;51.212;6.980;2022-08-01T03:06:08;14.30;;;8.35;;
50821;SDS011;36794;51.212;6.980;2022-08-01T03:08:34;17.17;;;8.52;;
50821;SDS011;36794;51.212;6.980;2022-08-01T03:11:02;14.38;;;9.18;;
50821;SDS011;36794;51.212;6.980;2022-08-01T03:13:28;19.08;;;9.30;;
50821;SDS011;36794;51.212;6.980;2022-08-01T03:15:55;15.68;;;9.35;;
50821;SDS011;36794;51.212;6.980;2022-08-01T03:18:21;18.33;;;9.45;;
50821;SDS011;36794;51.212;6.980;2022-08-01T03:20:49;17.02;;;9.52;;
50821;SDS011;36794;51.212;6.980;2022-08-01T03:23:16;19.20;;;10.23;;
50821;SDS011;36794;51.212;6.980;2022-08-01T03:25:43;21.73;;;10.02;;
50821;SDS011;36794;51.212;6.980;2022-08-01T03:28:12;21.58;;;10.05;;
50821;SDS011;36794;51.212;6.980;2022-08-01T03:30:38;15.85;;;10.25;;
50821;SDS011;36794;51.212;6.980;2022-08-01T03:33:05;17.63;;;10.13;;
50821;SDS011;36794;51.212;6.980;2022-08-01T03:35:39;23.75;;;11.13;;
50821;SDS011;36794;51.212;6.980;2022-08-01T03:38:08;18.13;;;10.80;;
50821;SDS011;36794;51.212;6.980;2022-08-01T03:40:39;19.38;;;11.10;;
50821;SDS011;36794;51.212;6.980;2022-08-01T03:43:07;20.17;;;10.63;;
50821;SDS011;36794;51.212;6.980;2022-08-01T03:45:35;20.02;;;10.82;;
50821;SDS011;36794;51.212;6.980;2022-08-01T03:48:03;19.02;;;11.27;;
50821;SDS011;36794;51.212;6.980;2022-08-01T03:50:30;17.73;;;11.05;;
50821;SDS011;36794;51.212;6.980;2022-08-01T03:52:59;16.80;;;9.77;;
50821;SDS011;36794;51.212;6.980;2022-08-01T03:55:25;17.50;;;9.88;;
50821;SDS011;36794;51.212;6.980;2022-08-01T03:57:52;17.98;;;9.63;;
50821;SDS011;36794;51.212;6.980;2022-08-01T04:00:18;19.13;;;10.55;;
50821;SDS011;36794;51.212;6.980;2022-08-01T04:02:47;17.90;;;11.20;;
50821;SDS011;36794;51.212;6.980;2022-08-01T04:05:14;17.15;;;10.57;;
50821;SDS011;36794;51.212;6.980;2022-08-01T04:07:41;19.48;;;11.57;;
50821;SDS011;36794;51.212;6.980;2022-08-01T04:10:11;22.23;;;11.85;;
50821;SDS011;36794;51.212;6.980;2022-08-01T04:12:37;20.10;;;11.55;;
50821;SDS011;36794;51.212;6.980;2022-08-01T04:15:04;22.08;;;11.85;;
50821;SDS011;36794;51.212;6.980;2022-08-01T04:17:30;25.70;;;12.15;;
50821;SDS011;36794;51.212;6.980;2022-08-01T04:19:56;21.42;;;12.82;;
50821;SDS011;36794;51.212;6.980;2022-08-01T04:22:22;19.13;;;12.13;;
50821;SDS011;36794;51.212;6.980;2022-08-01T04:24:48;18.42;;;12.68;;
50821;SDS011;36794;51.212;6.980;2022-08-01T04:27:17;23.42;;;13.48;;
50821;SDS011;36794;51.212;6.980;2022-08-01T04:29:44;24.55;;;14.30;;
50821;SDS011;36794;51.212;6.980;2022-08-01T04:32:12;21.25;;;13.98;;
50821;SDS011;36794;51.212;6.980;2022-08-01T04:34:39;23.35;;;14.70;;
50821;SDS011;36794;51.212;6.980;2022-08-01T04:37:07;24.10;;;14.25;;
50821;SDS011;36794;51.212;6.980;2022-08-01T04:39:35;23.77;;;14.40;;
50821;SDS011;36794;51.212;6.980;2022-08-01T04:42:02;26.27;;;15.05;;
50821;SDS011;36794;51.212;6.980;2022-08-01T04:44:29;22.05;;;14.65;;
50821;SDS011;36794;51.212;6.980;2022-08-01T04:46:57;24.45;;;14.63;;
50821;SDS011;36794;51.212;6.980;2022-08-01T04:49:23;22.98;;;14.25;;
50821;SDS011;36794;51.212;6.980;2022-08-01T04:51:50;26.33;;;15.13;;
50821;SDS011;36794;51.212;6.980;2022-08-01T04:54:17;19.80;;;14.35;;
50821;SDS011;36794;51.212;6.980;2022-08-01T04:56:43;21.02;;;13.30;;
50821;SDS011;36794;51.212;6.980;2022-08-01T04:59:09;24.33;;;14.57;;
50821;SDS011;36794;51.212;6.980;2022-08-01T05:01:53;20.35;;;13.95;;
50821;SDS011;36794;51.212;6.980;2022-08-01T05:04:19;21.15;;;14.02;;
50821;SDS011;36794;51.212;6.980;2022-08-01T05:06:45;22.83;;;14.85;;
50821;SDS011;36794;51.212;6.980;2022-08-01T05:09:11;22.55;;;13.90;;
50821;SDS011;36794;51.212;6.980;2022-08-01T05:11:37;22.92;;;14.13;;
50821;SDS011;36794;51.212;6.980;2022-08-01T05:14:03;23.88;;;14.13;;
50821;SDS011;36794;51.212;6.980;2022-08-01T05:16:29;21.33;;;14.65;;
50821;SDS011;36794;51.212;6.980;2022-08-01T05:18:55;20.92;;;15.15;;
50821;SDS011;36794;51.212;6.980;2022-08-01T05:21:21;26.23;;;15.32;;
50821;SDS011;36794;51.212;6.980;2022-08-01T05:23:47;21.77;;;14.57;;
50821;SDS011;36794;51.212;6.980;2022-08-01T05:26:14;24.48;;;14.95;;
50821;SDS011;36794;51.212;6.980;2022-08-01T05:28:40;24.35;;;14.70;;
50821;SDS011;36794;51.212;6.980;2022-08-01T05:31:06;24.20;;;15.88;;
50821;SDS011;36794;51.212;6.980;2022-08-01T05:33:32;27.25;;;15.95;;
50821;SDS011;36794;51.212;6.980;2022-08-01T05:35:58;27.88;;;16.00;;
50821;SDS011;36794;51.212;6.980;2022-08-01T05:38:24;22.08;;;15.57;;
50821;SDS011;36794;51.212;6.980;2022-08-01T05:40:50;23.20;;;15.15;;
50821;SDS011;36794;51.212;6.980;2022-08-01T05:43:16;24.88;;;15.52;;
50821;SDS011;36794;51.212;6.980;2022-08-01T05:45:42;23.88;;;15.68;;
50821;SDS011;36794;51.212;6.980;2022-08-01T05:48:09;27.30;;;15.93;;
50821;SDS011;36794;51.212;6.980;2022-08-01T05:50:35;24.70;;;15.93;;
50821;SDS011;36794;51.212;6.980;2022-08-01T05:53:01;24.67;;;15.80;;
50821;SDS011;36794;51.212;6.980;2022-08-01T05:55:27;22.48;;;15.13;;
50821;SDS011;36794;51.212;6.980;2022-08-01T05:57:53;22.58;;;15.57;;
50821;SDS011;36794;51.212;6.980;2022-08-01T06:00:19;25.40;;;16.58;;
50821;SDS011;36794;51.212;6.980;2022-08-01T06:02:45;23.70;;;15.85;;
50821;SDS011;36794;51.212;6.980;2022-08-01T06:05:11;24.85;;;15.65;;
50821;SDS011;36794;51.212;6.980;2022-08-01T06:07:37;21.05;;;16.17;;
50821;SDS011;36794;51.212;6.980;2022-08-01T06:10:04;26.25;;;15.45;;
50821;SDS011;36794;51.212;6.980;2022-08-01T06:12:32;25.58;;;15.90;;
50821;SDS011;36794;51.212;6.980;2022-08-01T06:14:58;23.08;;;15.15;;
50821;SDS011;36794;51.212;6.980;2022-08-01T06:17:24;20.38;;;14.35;;
50821;SDS011;36794;51.212;6.980;2022-08-01T06:19:50;26.85;;;15.07;;
50821;SDS011;36794;51.212;6.980;2022-08-01T06:22:16;22.38;;;14.98;;
50821;SDS011;36794;51.212;6.980;2022-08-01T06:24:42;25.65;;;15.32;;
50821;SDS011;36794;51.212;6.980;2022-08-01T06:27:08;21.05;;;14.05;;
50821;SDS011;36794;51.212;6.980;2022-08-01T06:29:34;25.08;;;14.75;;
50821;SDS011;36794;51.212;6.980;2022-08-01T06:32:00;23.35;;;15.45;;
50821;SDS011;36794;51.212;6.980;2022-08-01T06:34:26;21.67;;;15.32;;
50821;SDS011;36794;51.212;6.980;2022-08-01T06:36:52;22.35;;;15.18;;
50821;SDS011;36794;51.212;6.980;2022-08-01T06:39:18;21.77;;;14.90;;
50821;SDS011;36794;51.212;6.980;2022-08-01T06:41:44;27.13;;;15.25;;
50821;SDS011;36794;51.212;6.980;2022-08-01T06:44:12;23.42;;;15.32;;
50821;SDS011;36794;51.212;6.980;2022-08-01T06:46:38;21.70;;;16.17;;
50821;SDS011;36794;51.212;6.980;2022-08-01T06:49:04;22.23;;;15.95;;
50821;SDS011;36794;51.212;6.980;2022-08-01T06:51:30;26.67;;;15.18;;
50821;SDS011;36794;51.212;6.980;2022-08-01T06:53:56;25.15;;;15.07;;
50821;SDS011;36794;51.212;6.980;2022-08-01T06:56:22;19.45;;;14.00;;
50821;SDS011;36794;51.212;6.980;2022-08-01T06:58:49;18.23;;;13.85;;
50821;SDS011;36794;51.212;6.980;2022-08-01T07:01:15;21.38;;;15.00;;
50821;SDS011;36794;51.212;6.980;2022-08-01T07:03:41;20.13;;;14.32;;
50821;SDS011;36794;51.212;6.980;2022-08-01T07:06:07;17.63;;;14.35;;
50821;SDS011;36794;51.212;6.980;2022-08-01T07:08:34;17.92;;;13.45;;
50821;SDS011;36794;51.212;6.980;2022-08-01T07:11:00;21.83;;;13.68;;
50821;SDS011;36794;51.212;6.980;2022-08-01T07:13:27;18.05;;;13.32;;
50821;SDS011;36794;51.212;6.980;2022-08-01T07:15:53;17.20;;;12.77;;
50821;SDS011;36794;51.212;6.980;2022-08-01T07:18:19;18.65;;;13.40;;
50821;SDS011;36794;51.212;6.980;2022-08-01T07:20:45;19.30;;;13.77;;
50821;SDS011;36794;51.212;6.980;2022-08-01T07:23:11;18.77;;;14.73;;
50821;SDS011;36794;51.212;6.980;2022-08-01T07:25:38;17.35;;;13.63;;
50821;SDS011;36794;51.212;6.980;2022-08-01T07:28:04;17.77;;;12.82;;
50821;SDS011;36794;51.212;6.980;2022-08-01T07:30:30;15.75;;;11.88;;
50821;SDS011;36794;51.212;6.980;2022-08-01T07:32:56;17.52;;;12.13;;
50821;SDS011;36794;51.212;6.980;2022-08-01T07:35:22;14.95;;;10.38;;
50821;SDS011;36794;51.212;6.980;2022-08-01T07:37:48;13.48;;;10.13;;
50821;SDS011;36794;51.212;6.980;2022-08-01T07:40:14;11.77;;;8.90;;
50821;SDS011;36794;51.212;6.980;2022-08-01T07:42:40;10.25;;;7.35;;
50821;SDS011;36794;51.212;6.980;2022-08-01T07:45:10;9.63;;;7.00;;
50821;SDS011;36794;51.212;6.980;2022-08-01T07:47:36;10.32;;;6.85;;
50821;SDS011;36794;51.212;6.980;2022-08-01T07:50:02;7.70;;;6.03;;
50821;SDS011;36794;51.212;6.980;2022-08-01T07:52:29;8.07;;;6.15;;
50821;SDS011;36794;51.212;6.980;2022-08-01T07:54:57;8.10;;;5.75;;
50821;SDS011;36794;51.212;6.980;2022-08-01T07:57:24;10.13;;;5.35;;
50821;SDS011;36794;51.212;6.980;2022-08-01T07:59:50;8.13;;;5.20;;
50821;SDS011;36794;51.212;6.980;2022-08-01T08:02:16;8.63;;;4.80;;
50821;SDS011;36794;51.212;6.980;2022-08-01T08:04:42;10.43;;;5.20;;
50821;SDS011;36794;51.212;6.980;2022-08-01T08:07:08;5.97;;;4.97;;
50821;SDS011;36794;51.212;6.980;2022-08-01T08:09:34;6.63;;;5.00;;
50821;SDS011;36794;51.212;6.980;2022-08-01T08:12:00;8.82;;;4.97;;
50821;SDS011;36794;51.212;6.980;2022-08-01T08:14:26;8.38;;;4.78;;
50821;SDS011;36794;51.212;6.980;2022-08-01T08:16:54;8.73;;;4.80;;
50821;SDS011;36794;51.212;6.980;2022-08-01T08:19:20;6.60;;;4.55;;
50821;SDS011;36794;51.212;6.980;2022-08-01T08:21:46;8.00;;;4.25;;
50821;SDS011;36794;51.212;6.980;2022-08-01T08:24:12;8.60;;;4.45;;
50821;SDS011;36794;51.212;6.980;2022-08-01T08:26:57;11.90;;;4.90;;
50821;SDS011;36794;51.212;6.980;2022-08-01T08:29:23;6.05;;;4.07;;
50821;SDS011;36794;51.212;6.980;2022-08-01T08:31:51;6.15;;;3.95;;
50821;SDS011;36794;51.212;6.980;2022-08-01T08:34:17;6.07;;;4.40;;
50821;SDS011;36794;51.212;6.980;2022-08-01T08:36:43;4.88;;;3.65;;
50821;SDS011;36794;51.212;6.980;2022-08-01T08:39:09;5.05;;;3.60;;
50821;SDS011;36794;51.212;6.980;2022-08-01T08:41:35;3.95;;;3.03;;
50821;SDS011;36794;51.212;6.980;2022-08-01T08:44:05;3.53;;;2.92;;
50821;SDS011;36794;51.212;6.980;2022-08-01T08:46:32;6.65;;;3.22;;
50821;SDS011;36794;51.212;6.980;2022-08-01T08:48:59;4.72;;;2.75;;
50821;SDS011;36794;51.212;6.980;2022-08-01T08:51:25;4.07;;;2.83;;
50821;SDS011;36794;51.212;6.980;2022-08-01T08:53:53;3.60;;;2.90;;
50821;SDS011;36794;51.212;6.980;2022-08-01T08:56:20;3.83;;;2.53;;
50821;SDS011;36794;51.212;6.980;2022-08-01T08:58:46;2.97;;;2.50;;
50821;SDS011;36794;51.212;6.980;2022-08-01T09:01:13;3.58;;;2.55;;
50821;SDS011;36794;51.212;6.980;2022-08-01T09:03:39;4.18;;;2.78;;
50821;SDS011;36794;51.212;6.980;2022-08-01T09:06:05;4.47;;;2.70;;
50821;SDS011;36794;51.212;6.980;2022-08-01T09:08:32;3.67;;;2.70;;
50821;SDS011;36794;51.212;6.980;2022-08-01T09:10:58;5.65;;;2.80;;
50821;SDS011;36794;51.212;6.980;2022-08-01T09:13:24;3.55;;;2.55;;
50821;SDS011;36794;51.212;6.980;2022-08-01T09:15:52;5.20;;;3.45;;
50821;SDS011;36794;51.212;6.980;2022-08-01T09:18:28;6.03;;;3.17;;
50821;SDS011;36794;51.212;6.980;2022-08-01T09:23:34;5.20;;;2.53;;
50821;SDS011;36794;51.212;6.980;2022-08-01T09:26:01;4.43;;;3.05;;
50821;SDS011;36794;51.212;6.980;2022-08-01T09:28:27;5.57;;;2.78;;
50821;SDS011;36794;51.212;6.980;2022-08-01T09:30:55;5.93;;;3.00;;
50821;SDS011;36794;51.212;6.980;2022-08-01T09:33:21;4.07;;;2.90;;
50821;SDS011;36794;51.212;6.980;2022-08-01T09:35:54;6.78;;;2.90;;
50821;SDS011;36794;51.212;6.980;2022-08-01T09:38:21;4.20;;;2.80;;
50821;SDS011;36794;51.212;6.980;2022-08-01T09:40:52;5.00;;;3.05;;
50821;SDS011;36794;51.212;6.980;2022-08-01T09:43:19;5.30;;;3.10;;
50821;SDS011;36794;51.212;6.980;2022-08-01T09:45:45;4.07;;;2.70;;
50821;SDS011;36794;51.212;6.980;2022-08-01T09:48:11;4.15;;;2.80;;
50821;SDS011;36794;51.212;6.980;2022-08-01T09:50:41;4.30;;;2.80;;
50821;SDS011;36794;51.212;6.980;2022-08-01T09:53:08;5.18;;;2.80;;
50821;SDS011;36794;51.212;6.980;2022-08-01T09:55:34;3.30;;;2.45;;
50821;SDS011;36794;51.212;6.980;2022-08-01T09:58:00;6.43;;;2.90;;
50821;SDS011;36794;51.212;6.980;2022-08-01T10:00:26;5.00;;;2.55;;
50821;SDS011;36794;51.212;6.980;2022-08-01T10:02:53;8.43;;;2.90;;
50821;SDS011;36794;51.212;6.980;2022-08-01T10:05:29;4.35;;;2.55;;
50821;SDS011;36794;51.212;6.980;2022-08-01T10:07:56;7.93;;;2.55;;
50821;SDS011;36794;51.212;6.980;2022-08-01T10:10:22;5.85;;;2.25;;
50821;SDS011;36794;51.212;6.980;2022-08-01T10:12:48;5.38;;;2.50;;
50821;SDS011;36794;51.212;6.980;2022-08-01T10:15:14;4.72;;;2.53;;
50821;SDS011;36794;51.212;6.980;2022-08-01T10:17:41;3.58;;;2.25;;
50821;SDS011;36794;51.212;6.980;2022-08-01T10:20:11;2.85;;;2.20;;
50821;SDS011;36794;51.212;6.980;2022-08-01T10:22:38;3.13;;;2.22;;
50821;SDS011;36794;51.212;6.980;2022-08-01T10:25:04;4.03;;;1.90;;
50821;SDS011;36794;51.212;6.980;2022-08-01T10:27:32;4.97;;;1.85;;
50821;SDS011;36794;51.212;6.980;2022-08-01T10:30:01;3.28;;;2.15;;
50821;SDS011;36794;51.212;6.980;2022-08-01T10:32:34;4.15;;;1.67;;
50821;SDS011;36794;51.212;6.980;2022-08-01T10:35:01;2.78;;;1.70;;
50821;SDS011;36794;51.212;6.980;2022-08-01T10:37:27;4.93;;;2.00;;
50821;SDS011;36794;51.212;6.980;2022-08-01T10:39:54;2.72;;;2.08;;
50821;SDS011;36794;51.212;6.980;2022-08-01T10:42:20;2.92;;;2.13;;
50821;SDS011;36794;51.212;6.980;2022-08-01T10:44:47;2.38;;;1.58;;
50821;SDS011;36794;51.212;6.980;2022-08-01T10:47:14;4.00;;;1.58;;
50821;SDS011;36794;51.212;6.980;2022-08-01T10:52:16;1.70;;;1.40;;
50821;SDS011;36794;51.212;6.980;2022-08-01T10:54:42;2.78;;;1.70;;
50821;SDS011;36794;51.212;6.980;2022-08-01T10:57:08;2.83;;;1.60;;
50821;SDS011;36794;51.212;6.980;2022-08-01T10:59:35;2.28;;;1.23;;
50821;SDS011;36794;51.212;6.980;2022-08-01T11:02:05;2.28;;;1.33;;
50821;SDS011;36794;51.212;6.980;2022-08-01T11:04:42;1.88;;;1.48;;
50821;SDS011;36794;51.212;6.980;2022-08-01T11:07:16;2.45;;;1.33;;
50821;SDS011;36794;51.212;6.980;2022-08-01T11:09:45;5.50;;;1.30;;
50821;SDS011;36794;51.212;6.980;2022-08-01T11:12:13;3.58;;;1.60;;
50821;SDS011;36794;51.212;6.980;2022-08-01T11:17:45;2.35;;;1.33;;
50821;SDS011;36794;51.212;6.980;2022-08-01T11:20:15;1.50;;;1.02;;
50821;SDS011;36794;51.212;6.980;2022-08-01T11:23:27;5.10;;;1.20;;
50821;SDS011;36794;51.212;6.980;2022-08-01T11:31:24;5.65;;;0.88;;
50821;SDS011;36794;51.212;6.980;2022-08-01T11:41:25;2.50;;;0.98;;
50821;SDS011;36794;51.212;6.980;2022-08-01T11:52:10;2.33;;;1.00;;
50821;SDS011;36794;51.212;6.980;2022-08-01T11:54:50;1.13;;;0.70;;
50821;SDS011;36794;51.212;6.980;2022-08-01T11:57:23;1.33;;;0.52;;
50821;SDS011;36794;51.212;6.980;2022-08-01T11:59:51;1.17;;;0.50;;
50821;SDS011;36794;51.212;6.980;2022-08-01T12:02:19;2.20;;;0.52;;
50821;SDS011;36794;51.212;6.980;2022-08-01T12:04:55;0.85;;;0.60;;
50821;SDS011;36794;51.212;6.980;2022-08-01T12:07:22;1.75;;;0.73;;
50821;SDS011;36794;51.212;6.980;2022-08-01T12:09:55;1.98;;;0.90;;
50821;SDS011;36794;51.212;6.980;2022-08-01T12:12:22;0.80;;;0.60;;
50821;SDS011;36794;51.212;6.980;2022-08-01T12:14:58;1.70;;;0.63;;
50821;SDS011;36794;51.212;6.980;2022-08-01T12:17:34;1.27;;;0.70;;
50821;SDS011;36794;51.212;6.980;2022-08-01T12:20:02;1.58;;;0.60;;
50821;SDS011;36794;51.212;6.980;2022-08-01T12:22:28;1.70;;;0.80;;
50821;SDS011;36794;51.212;6.980;2022-08-01T12:24:55;1.23;;;0.70;;
50821;SDS011;36794;51.212;6.980;2022-08-01T12:27:26;1.13;;;0.77;;
50821;SDS011;36794;51.212;6.980;2022-08-01T12:29:52;4.15;;;0.90;;
50821;SDS011;36794;51.212;6.980;2022-08-01T12:32:26;2.38;;;1.17;;
50821;SDS011;36794;51.212;6.980;2022-08-01T12:34:53;3.88;;;1.20;;
50821;SDS011;36794;51.212;6.980;2022-08-01T12:37:19;2.42;;;1.13;;
50821;SDS011;36794;51.212;6.980;2022-08-01T12:39:45;2.17;;;1.10;;
50821;SDS011;36794;51.212;6.980;2022-08-01T12:42:11;1.63;;;0.98;;
50821;SDS011;36794;51.212;6.980;2022-08-01T12:44:38;1.52;;;0.98;;
50821;SDS011;36794;51.212;6.980;2022-08-01T12:47:05;2.22;;;1.20;;
50821;SDS011;36794;51.212;6.980;2022-08-01T12:49:35;3.38;;;1.23;;
50821;SDS011;36794;51.212;6.980;2022-08-01T12:52:01;2.85;;;1.10;;
50821;SDS011;36794;51.212;6.980;2022-08-01T12:54:27;4.70;;;1.50;;
50821;SDS011;36794;51.212;6.980;2022-08-01T12:56:53;1.70;;;1.25;;
50821;SDS011;36794;51.212;6.980;2022-08-01T12:59:20;1.80;;;1.00;;
50821;SDS011;36794;51.212;6.980;2022-08-01T13:01:47;3.70;;;0.80;;
50821;SDS011;36794;51.212;6.980;2022-08-01T13:04:13;1.77;;;1.02;;
50821;SDS011;36794;51.212;6.980;2022-08-01T13:06:39;1.58;;;1.00;;
50821;SDS011;36794;51.212;6.980;2022-08-01T13:09:06;3.78;;;1.20;;
50821;SDS011;36794;51.212;6.980;2022-08-01T13:11:32;3.08;;;1.05;;
50821;SDS011;36794;51.212;6.980;2022-08-01T13:13:58;3.63;;;0.70;;
50821;SDS011;36794;51.212;6.980;2022-08-01T13:16:25;1.23;;;0.90;;
50821;SDS011;36794;51.212;6.980;2022-08-01T13:18:52;4.07;;;1.23;;
50821;SDS011;36794;51.212;6.980;2022-08-01T13:29:38;2.70;;;1.38;;
50821;SDS011;36794;51.212;6.980;2022-08-01T13:34:39;3.38;;;1.83;;
50821;SDS011;36794;51.212;6.980;2022-08-01T13:37:05;4.78;;;1.40;;
50821;SDS011;36794;51.212;6.980;2022-08-01T13:39:31;3.38;;;1.17;;
50821;SDS011;36794;51.212;6.980;2022-08-01T13:42:13;1.27;;;0.95;;
50821;SDS011;36794;51.212;6.980;2022-08-01T13:44:40;1.92;;;1.15;;
50821;SDS011;36794;51.212;6.980;2022-08-01T13:47:06;2.67;;;1.48;;
50821;SDS011;36794;51.212;6.980;2022-08-01T13:49:32;2.75;;;1.20;;
50821;SDS011;36794;51.212;6.980;2022-08-01T13:51:59;2.60;;;1.10;;
50821;SDS011;36794;51.212;6.980;2022-08-01T13:54:25;4.18;;;1.10;;
50821;SDS011;36794;51.212;6.980;2022-08-01T13:56:52;1.45;;;0.82;;
50821;SDS011;36794;51.212;6.980;2022-08-01T13:59:18;3.75;;;1.60;;
50821;SDS011;36794;51.212;6.980;2022-08-01T14:01:44;2.15;;;1.10;;
50821;SDS011;36794;51.212;6.980;2022-08-01T14:04:11;4.25;;;1.10;;
50821;SDS011;36794;51.212;6.980;2022-08-01T14:06:37;3.72;;;1.10;;
50821;SDS011;36794;51.212;6.980;2022-08-01T14:09:03;1.60;;;0.90;;
50821;SDS011;36794;51.212;6.980;2022-08-01T14:11:29;4.18;;;1.00;;
50821;SDS011;36794;51.212;6.980;2022-08-01T14:13:55;2.70;;;1.08;;
50821;SDS011;36794;51.212;6.980;2022-08-01T14:16:22;2.10;;;1.00;;
50821;SDS011;36794;51.212;6.980;2022-08-01T14:18:48;3.88;;;1.30;;
50821;SDS011;36794;51.212;6.980;2022-08-01T14:21:14;2.75;;;1.20;;
50821;SDS011;36794;51.212;6.980;2022-08-01T14:23:40;1.27;;;1.13;;
50821;SDS011;36794;51.212;6.980;2022-08-01T14:26:07;2.53;;;1.23;;
50821;SDS011;36794;51.212;6.980;2022-08-01T14:28:33;3.08;;;1.10;;
50821;SDS011;36794;51.212;6.980;2022-08-01T14:30:59;2.63;;;1.13;;
50821;SDS011;36794;51.212;6.980;2022-08-01T14:33:25;1.85;;;1.02;;
50821;SDS011;36794;51.212;6.980;2022-08-01T14:35:52;1.35;;;0.93;;
50821;SDS011;36794;51.212;6.980;2022-08-01T14:38:18;1.45;;;1.05;;
50821;SDS011;36794;51.212;6.980;2022-08-01T14:40:44;3.80;;;0.95;;
50821;SDS011;36794;51.212;6.980;2022-08-01T14:43:12;0.80;;;0.80;;
50821;SDS011;36794;51.212;6.980;2022-08-01T14:45:38;1.48;;;1.00;;
50821;SDS011;36794;51.212;6.980;2022-08-01T14:48:04;2.13;;;1.20;;
50821;SDS011;36794;51.212;6.980;2022-08-01T14:50:30;2.20;;;1.17;;
50821;SDS011;36794;51.212;6.980;2022-08-01T14:52:56;2.95;;;1.10;;
50821;SDS011;36794;51.212;6.980;2022-08-01T14:55:23;3.85;;;1.40;;
50821;SDS011;36794;51.212;6.980;2022-08-01T14:57:51;2.08;;;1.08;;
50821;SDS011;36794;51.212;6.980;2022-08-01T15:00:17;2.20;;;1.00;;
50821;SDS011;36794;51.212;6.980;2022-08-01T15:02:44;1.67;;;0.93;;
50821;SDS011;36794;51.212;6.980;2022-08-01T15:05:10;3.35;;;0.93;;
50821;SDS011;36794;51.212;6.980;2022-08-01T15:07:37;4.60;;;0.90;;
50821;SDS011;36794;51.212;6.980;2022-08-01T15:10:05;2.75;;;1.00;;
50821;SDS011;36794;51.212;6.980;2022-08-01T15:12:31;1.77;;;0.80;;
50821;SDS011;36794;51.212;6.980;2022-08-01T15:14:57;1.05;;;0.90;;
50821;SDS011;36794;51.212;6.980;2022-08-01T15:17:24;2.28;;;1.05;;
50821;SDS011;36794;51.212;6.980;2022-08-01T15:19:51;1.23;;;1.00;;
50821;SDS011;36794;51.212;6.980;2022-08-01T15:22:17;4.40;;;1.20;;
50821;SDS011;36794;51.212;6.980;2022-08-01T15:24:44;2.00;;;1.30;;